createdAt,value
2023-01-30T00:00:32.191Z,100531.87
2023-01-30T00:02:58.529Z,100518.69
2023-01-30T00:05:24.882Z,100514.87
2023-01-30T00:07:51.191Z,100513.06
2023-01-30T00:10:17.786Z,100503.69
2023-01-30T00:12:44.296Z,100500.59
2023-01-30T00:15:10.604Z,100511.00
2023-01-30T00:17:38.696Z,100514.31
2023-01-30T00:20:05.091Z,100499.00
2023-01-30T00:22:31.440Z,100484.50
2023-01-30T00:24:57.852Z,100485.59
2023-01-30T00:27:24.283Z,100492.53
2023-01-30T00:30:02.198Z,100484.81
2023-01-30T00:32:29.663Z,100485.63
2023-01-30T00:34:55.967Z,100488.97
2023-01-30T00:37:22.297Z,100480.47
2023-01-30T00:39:48.605Z,100468.44
2023-01-30T00:42:33.647Z,100461.91
2023-01-30T00:45:19.061Z,100456.34
2023-01-30T00:47:45.791Z,100464.63
2023-01-30T00:50:12.113Z,100448.06
2023-01-30T00:52:38.616Z,100437.88
2023-01-30T00:55:04.931Z,100428.88
2023-01-30T00:57:31.291Z,100419.34
2023-01-30T00:59:57.632Z,100416.91
2023-01-30T01:02:23.935Z,100409.66
2023-01-30T01:04:50.245Z,100408.38
2023-01-30T01:07:16.552Z,100410.03
2023-01-30T01:09:42.867Z,100411.94
2023-01-30T01:12:09.189Z,100404.19
2023-01-30T01:14:35.517Z,100412.19
2023-01-30T01:17:02.010Z,100407.84
2023-01-30T01:19:28.337Z,100404.81
2023-01-30T01:21:54.636Z,100392.22
2023-01-30T01:24:21.005Z,100384.78
2023-01-30T01:26:47.496Z,100379.00
2023-01-30T01:29:13.859Z,100374.09
2023-01-30T01:31:40.343Z,100370.53
2023-01-30T01:34:06.762Z,100351.88
2023-01-30T01:36:52.703Z,100353.50
2023-01-30T01:39:19.391Z,100344.22
2023-01-30T01:41:45.687Z,100326.13
2023-01-30T01:44:12.057Z,100320.88
2023-01-30T01:46:38.779Z,100322.78
2023-01-30T01:49:05.097Z,100328.56
2023-01-30T01:51:31.691Z,100318.69
2023-01-30T01:53:58.023Z,100318.13
2023-01-30T01:56:24.415Z,100313.19
2023-01-30T01:58:50.776Z,100308.78
2023-01-30T02:01:17.161Z,100299.47
2023-01-30T02:03:43.497Z,100287.91
2023-01-30T02:06:09.886Z,100275.84
2023-01-30T02:08:36.204Z,100256.09
2023-01-30T02:11:02.537Z,100234.13
2023-01-30T02:13:28.840Z,100219.59
2023-01-30T02:15:55.169Z,100207.22
2023-01-30T02:18:21.525Z,100206.13
2023-01-30T02:20:47.873Z,100203.94
2023-01-30T02:23:14.189Z,100208.34
2023-01-30T02:25:40.523Z,100200.91
2023-01-30T02:28:06.835Z,100196.25
2023-01-30T02:30:33.242Z,100207.50
2023-01-30T02:32:59.623Z,100202.84
2023-01-30T02:35:25.938Z,100192.41
2023-01-30T02:37:52.299Z,100192.66
2023-01-30T02:40:18.610Z,100193.50
2023-01-30T02:42:44.926Z,100193.75
2023-01-30T02:45:11.237Z,100192.66
2023-01-30T02:47:37.557Z,100205.28
2023-01-30T02:50:03.966Z,100199.78
2023-01-30T02:52:30.274Z,100213.50
2023-01-30T02:54:56.584Z,100200.03
2023-01-30T02:57:22.892Z,100197.53
2023-01-30T02:59:49.578Z,100176.94
2023-01-30T03:02:15.923Z,100154.41
2023-01-30T03:04:42.257Z,100160.41
2023-01-30T03:07:08.570Z,100143.38
2023-01-30T03:09:34.881Z,100119.97
2023-01-30T03:12:01.277Z,100128.44
2023-01-30T03:14:27.789Z,100131.72
2023-01-30T03:16:54.084Z,100114.41
2023-01-30T03:19:20.594Z,100119.03
2023-01-30T03:21:46.958Z,100122.25
2023-01-30T03:24:13.316Z,100117.94
2023-01-30T03:26:39.655Z,100092.91
2023-01-30T03:29:05.979Z,100092.59
2023-01-30T03:31:32.416Z,100070.66
2023-01-30T03:33:58.755Z,100073.03
2023-01-30T03:36:25.081Z,100073.84
2023-01-30T03:38:52.196Z,100069.19
2023-01-30T03:41:18.494Z,100046.63
2023-01-30T03:43:44.891Z,100050.69
2023-01-30T03:46:11.268Z,100039.78
2023-01-30T03:48:37.592Z,100027.41
2023-01-30T03:51:03.919Z,100029.84
2023-01-30T03:53:30.235Z,100015.78
2023-01-30T03:55:56.549Z,100011.16
2023-01-30T03:58:22.879Z,100020.78
2023-01-30T04:00:49.213Z,100015.16
2023-01-30T04:03:15.945Z,100029.97
2023-01-30T04:05:42.282Z,100017.03
2023-01-30T04:08:08.612Z,100033.53
2023-01-30T04:10:34.908Z,100027.13
2023-01-30T04:13:01.243Z,100026.06
2023-01-30T04:15:27.566Z,100025.75
2023-01-30T04:17:53.874Z,100007.28
2023-01-30T04:20:20.583Z,100004.25
2023-01-30T04:22:46.940Z,99995.75
2023-01-30T04:25:13.255Z,100006.84
2023-01-30T04:27:39.630Z,99988.81
2023-01-30T04:30:05.937Z,99986.53
2023-01-30T04:32:32.273Z,99978.34
2023-01-30T04:34:58.589Z,99967.50
2023-01-30T04:37:24.931Z,99969.75
2023-01-30T04:39:51.257Z,99974.94
2023-01-30T04:42:17.559Z,99961.72
2023-01-30T04:44:43.862Z,99965.25
2023-01-30T04:47:10.203Z,99963.47
2023-01-30T04:49:36.560Z,99967.34
2023-01-30T04:52:02.913Z,99938.94
2023-01-30T04:54:29.204Z,99944.66
2023-01-30T04:56:55.521Z,99946.59
2023-01-30T04:59:21.816Z,99939.72
2023-01-30T05:01:48.267Z,99930.25
2023-01-30T05:04:14.628Z,99914.78
2023-01-30T05:06:41.015Z,99913.59
2023-01-30T05:09:07.384Z,99908.63
2023-01-30T05:11:33.766Z,99910.84
2023-01-30T05:14:00.143Z,99897.81
2023-01-30T05:16:26.555Z,99889.00
2023-01-30T05:18:52.870Z,99897.31
2023-01-30T05:21:19.190Z,99883.72
2023-01-30T05:23:45.522Z,99876.50
2023-01-30T05:26:11.883Z,99871.25
2023-01-30T05:28:38.338Z,99853.94
2023-01-30T05:31:04.767Z,99851.81
2023-01-30T05:33:31.237Z,99843.13
2023-01-30T05:35:57.646Z,99855.13
2023-01-30T05:38:24.004Z,99844.53
2023-01-30T05:40:50.309Z,99844.53
2023-01-30T05:43:16.613Z,99844.97
2023-01-30T05:45:42.949Z,99841.84
2023-01-30T05:48:09.261Z,99843.72
2023-01-30T05:50:35.594Z,99831.78
2023-01-30T05:53:01.993Z,99826.69
2023-01-30T05:55:28.320Z,99818.63
2023-01-30T05:57:54.642Z,99814.97
2023-01-30T06:00:20.970Z,99826.00
2023-01-30T06:02:47.341Z,99809.53
2023-01-30T06:05:13.682Z,99780.56
2023-01-30T06:07:40.019Z,99809.56
2023-01-30T06:10:06.371Z,99815.84
2023-01-30T06:12:32.744Z,99807.50
2023-01-30T06:14:59.142Z,99798.41
2023-01-30T06:17:25.487Z,99798.69
2023-01-30T06:19:51.852Z,99807.91
2023-01-30T06:22:18.169Z,99786.66
2023-01-30T06:24:44.543Z,99800.44
2023-01-30T06:27:10.965Z,99791.78
2023-01-30T06:29:37.477Z,99806.38
2023-01-30T06:32:03.802Z,99804.19
2023-01-30T06:34:30.123Z,99795.66
2023-01-30T06:36:56.441Z,99792.28
2023-01-30T06:39:22.868Z,99790.31
2023-01-30T06:41:49.176Z,99792.59
2023-01-30T06:44:15.500Z,99784.00
2023-01-30T06:46:41.813Z,99771.66
2023-01-30T06:49:08.174Z,99779.41
2023-01-30T06:51:34.492Z,99786.25
2023-01-30T06:54:00.869Z,99787.28
2023-01-30T06:56:27.207Z,99795.66
2023-01-30T06:58:53.605Z,99782.16
2023-01-30T07:01:21.316Z,99800.31
2023-01-30T07:03:48.654Z,99793.09
2023-01-30T07:06:15.001Z,99790.38
2023-01-30T07:08:41.341Z,99795.69
2023-01-30T07:11:07.699Z,99791.75
2023-01-30T07:13:34.047Z,99787.81
2023-01-30T07:16:00.419Z,99779.56
2023-01-30T07:18:26.716Z,99778.25
2023-01-30T07:20:53.035Z,99782.09
2023-01-30T07:23:19.390Z,99768.78
2023-01-30T07:25:45.983Z,99780.37
2023-01-30T07:28:12.294Z,99780.22
2023-01-30T07:30:38.728Z,99777.38
2023-01-30T07:33:05.067Z,99765.75
2023-01-30T07:35:31.392Z,99773.31
2023-01-30T07:37:57.747Z,99768.97
2023-01-30T07:40:24.054Z,99750.19
2023-01-30T07:42:50.366Z,99761.69
2023-01-30T07:45:17.112Z,99754.91
2023-01-30T07:47:43.628Z,99752.06
2023-01-30T07:50:09.955Z,99749.53
2023-01-30T07:52:36.395Z,99754.03
2023-01-30T07:55:02.719Z,99757.50
2023-01-30T07:57:29.023Z,99755.78
2023-01-30T07:59:55.369Z,99756.47
2023-01-30T08:02:21.773Z,99747.41
2023-01-30T08:04:48.149Z,99763.31
2023-01-30T08:07:14.486Z,99744.41
2023-01-30T08:09:40.844Z,99748.41
2023-01-30T08:12:07.213Z,99739.72
2023-01-30T08:14:33.538Z,99753.62
2023-01-30T08:16:59.899Z,99735.34
2023-01-30T08:19:26.213Z,99741.25
2023-01-30T08:21:52.549Z,99742.91
2023-01-30T08:24:18.867Z,99732.47
2023-01-30T08:26:45.276Z,99738.69
2023-01-30T08:29:11.660Z,99742.47
2023-01-30T08:31:38.056Z,99726.75
2023-01-30T08:34:04.517Z,99747.13
2023-01-30T08:36:30.857Z,99757.78
2023-01-30T08:38:57.283Z,99738.06
2023-01-30T08:41:23.635Z,99736.13
2023-01-30T08:43:49.963Z,99734.41
2023-01-30T08:46:17.583Z,99726.25
2023-01-30T08:48:49.960Z,99729.22
2023-01-30T08:51:16.758Z,99712.03
2023-01-30T08:53:43.115Z,99714.09
2023-01-30T08:56:09.536Z,99726.16
2023-01-30T08:58:35.997Z,99715.59
2023-01-30T09:01:02.386Z,99710.28
2023-01-30T09:03:28.798Z,99728.47
2023-01-30T09:05:55.531Z,99719.84
2023-01-30T09:08:21.907Z,99736.41
2023-01-30T09:10:48.236Z,99714.44
2023-01-30T09:13:14.563Z,99712.09
2023-01-30T09:15:40.881Z,99715.06
2023-01-30T09:18:07.203Z,99700.16
2023-01-30T09:20:33.549Z,99698.59
2023-01-30T09:22:59.927Z,99720.28
2023-01-30T09:25:26.261Z,99704.81
2023-01-30T09:27:52.865Z,99709.50
2023-01-30T09:30:19.549Z,99716.63
2023-01-30T09:32:46.200Z,99729.66
2023-01-30T09:35:12.665Z,99711.53
2023-01-30T09:37:38.976Z,99696.59
2023-01-30T09:40:05.402Z,99725.41
2023-01-30T09:42:31.825Z,99740.84
2023-01-30T09:44:58.401Z,99726.53
2023-01-30T09:47:24.720Z,99725.78
2023-01-30T09:49:51.046Z,99719.47
2023-01-30T09:52:19.330Z,99706.53
2023-01-30T09:54:45.992Z,99704.41
2023-01-30T09:57:21.724Z,99697.88
2023-01-30T09:59:48.796Z,99696.81
2023-01-30T10:02:15.130Z,99693.47
2023-01-30T10:04:51.705Z,99686.03
2023-01-30T10:07:25.625Z,99693.56
2023-01-30T10:09:52.009Z,99679.22
2023-01-30T10:12:18.333Z,99673.16
2023-01-30T10:14:44.682Z,99684.59
2023-01-30T10:17:11.261Z,99670.19
2023-01-30T10:19:37.692Z,99664.69
2023-01-30T10:22:04.005Z,99664.44
2023-01-30T10:24:30.311Z,99651.66
2023-01-30T10:26:56.849Z,99653.41
2023-01-30T10:29:23.219Z,99653.13
2023-01-30T10:31:49.636Z,99648.97
2023-01-30T10:34:16.008Z,99655.25
2023-01-30T10:36:42.370Z,99657.22
2023-01-30T10:39:08.779Z,99676.62
2023-01-30T10:41:35.146Z,99679.06
2023-01-30T10:44:01.466Z,99675.63
2023-01-30T10:46:27.961Z,99664.72
2023-01-30T10:48:54.401Z,99657.22
2023-01-30T10:51:22.615Z,99663.09
2023-01-30T10:53:48.979Z,99672.91
2023-01-30T10:56:15.304Z,99666.81
2023-01-30T10:58:41.847Z,99675.50
2023-01-30T11:01:08.182Z,99688.97
2023-01-30T11:03:34.552Z,99682.88
2023-01-30T11:06:00.946Z,99668.97
2023-01-30T11:08:27.261Z,99677.53
2023-01-30T11:10:53.599Z,99677.88
2023-01-30T11:13:20.093Z,99678.12
2023-01-30T11:15:46.433Z,99669.91
2023-01-30T11:18:49.781Z,99674.66
2023-01-30T11:20:59.081Z,99662.44
2023-01-30T11:23:25.442Z,99679.88
2023-01-30T11:26:05.532Z,99678.72
2023-01-30T11:28:36.771Z,99664.88
2023-01-30T11:31:03.211Z,99674.56
2023-01-30T11:33:29.759Z,99666.41
2023-01-30T11:35:56.079Z,99669.12
2023-01-30T11:38:22.470Z,99656.88
2023-01-30T11:40:48.879Z,99647.28
2023-01-30T11:43:15.225Z,99655.81
2023-01-30T11:45:41.651Z,99665.28
2023-01-30T11:48:10.409Z,99659.75
2023-01-30T11:50:43.930Z,99655.25
2023-01-30T11:53:13.554Z,99652.06
2023-01-30T11:55:41.760Z,99645.69
2023-01-30T11:58:09.474Z,99651.06
2023-01-30T12:00:35.811Z,99656.06
2023-01-30T12:03:02.208Z,99657.13
2023-01-30T12:05:28.562Z,99633.91
2023-01-30T12:07:54.950Z,99638.88
2023-01-30T12:10:21.264Z,99631.12
2023-01-30T12:12:47.607Z,99640.69
2023-01-30T12:15:13.941Z,99610.66
2023-01-30T12:17:40.298Z,99615.62
2023-01-30T12:20:06.660Z,99614.09
2023-01-30T12:22:33.024Z,99610.88
2023-01-30T12:24:59.396Z,99593.34
2023-01-30T12:27:25.769Z,99590.63
2023-01-30T12:29:52.172Z,99588.50
2023-01-30T12:32:18.468Z,99589.72
2023-01-30T12:34:45.723Z,99598.56
2023-01-30T12:37:12.039Z,99586.41
2023-01-30T12:39:38.394Z,99589.00
2023-01-30T12:42:04.701Z,99601.28
2023-01-30T12:44:31.116Z,99601.94
2023-01-30T12:46:57.510Z,99588.41
2023-01-30T12:49:23.813Z,99589.84
2023-01-30T12:51:50.153Z,99577.38
2023-01-30T12:54:16.485Z,99580.03
2023-01-30T12:56:42.814Z,99570.28
2023-01-30T12:59:09.139Z,99579.22
2023-01-30T13:01:35.623Z,99576.50
2023-01-30T13:04:01.966Z,99572.31
2023-01-30T13:06:28.327Z,99566.13
2023-01-30T13:08:54.647Z,99591.59
2023-01-30T13:11:20.978Z,99590.72
2023-01-30T13:13:47.384Z,99577.56
2023-01-30T13:16:13.788Z,99582.44
2023-01-30T13:18:40.102Z,99576.81
2023-01-30T13:21:06.431Z,99559.13
2023-01-30T13:23:32.808Z,99582.84
2023-01-30T13:25:59.309Z,99573.09
2023-01-30T13:28:26.098Z,99571.03
2023-01-30T13:30:52.613Z,99557.41
2023-01-30T13:33:18.947Z,99575.94
2023-01-30T13:35:45.307Z,99573.19
2023-01-30T13:38:11.642Z,99570.44
2023-01-30T13:40:38.627Z,99577.94
2023-01-30T13:43:07.255Z,99573.03
2023-01-30T13:45:33.854Z,99588.81
2023-01-30T13:48:02.031Z,99576.25
2023-01-30T13:50:28.411Z,99558.84
2023-01-30T13:52:54.791Z,99570.75
2023-01-30T13:55:21.178Z,99561.66
2023-01-30T13:57:47.610Z,99550.22
2023-01-30T14:00:13.991Z,99556.59
2023-01-30T14:02:40.304Z,99566.53
2023-01-30T14:05:06.672Z,99562.62
2023-01-30T14:07:33.066Z,99575.16
2023-01-30T14:09:59.390Z,99583.94
2023-01-30T14:12:26.149Z,99578.41
2023-01-30T14:14:53.468Z,99581.19
2023-01-30T14:17:19.815Z,99563.44
2023-01-30T14:19:46.199Z,99578.41
2023-01-30T14:22:12.563Z,99575.81
2023-01-30T14:24:38.910Z,99582.66
2023-01-30T14:27:05.346Z,99574.00
2023-01-30T14:29:31.660Z,99577.44
2023-01-30T14:31:58.242Z,99584.41
2023-01-30T14:34:24.655Z,99587.81
2023-01-30T14:36:51.003Z,99581.47
2023-01-30T14:39:17.381Z,99590.34
2023-01-30T14:41:43.743Z,99589.25
2023-01-30T14:44:10.094Z,99582.87
2023-01-30T14:46:36.458Z,99588.41
2023-01-30T14:49:05.351Z,99559.87
2023-01-30T14:51:31.783Z,99570.16
2023-01-30T14:53:58.125Z,99561.03
2023-01-30T14:56:24.430Z,99590.72
2023-01-30T14:58:50.818Z,99567.66
2023-01-30T15:01:17.220Z,99565.28
2023-01-30T15:03:43.592Z,99587.69
2023-01-30T15:06:09.910Z,99574.00
2023-01-30T15:08:36.232Z,99580.88
2023-01-30T15:11:02.557Z,99577.13
2023-01-30T15:13:28.880Z,99585.91
2023-01-30T15:15:55.228Z,99587.84
2023-01-30T15:18:21.582Z,99589.63
2023-01-30T15:20:47.901Z,99587.16
2023-01-30T15:23:14.226Z,99618.84
2023-01-30T15:25:40.647Z,99605.78
2023-01-30T15:28:07.082Z,99603.34
2023-01-30T15:30:34.994Z,99607.25
2023-01-30T15:33:01.371Z,99599.53
2023-01-30T15:35:27.797Z,99605.66
2023-01-30T15:37:54.189Z,99621.63
2023-01-30T15:40:21.228Z,99619.66
2023-01-30T15:42:47.814Z,99637.22
2023-01-30T15:45:14.200Z,99650.28
2023-01-30T15:47:40.994Z,99653.34
2023-01-30T15:50:07.379Z,99666.78
2023-01-30T15:52:33.703Z,99674.06
2023-01-30T15:55:00.020Z,99675.03
2023-01-30T15:57:26.413Z,99673.91
2023-01-30T15:59:52.718Z,99698.97
2023-01-30T16:02:19.063Z,99698.47
2023-01-30T16:04:45.486Z,99693.16
2023-01-30T16:07:11.790Z,99701.53
2023-01-30T16:09:38.099Z,99706.84
2023-01-30T16:12:04.413Z,99698.16
2023-01-30T16:14:30.731Z,99710.63
2023-01-30T16:16:57.045Z,99696.31
2023-01-30T16:19:23.393Z,99702.84
2023-01-30T16:21:49.728Z,99701.31
2023-01-30T16:24:16.122Z,99702.94
2023-01-30T16:26:42.474Z,99701.31
2023-01-30T16:29:08.897Z,99700.50
2023-01-30T16:31:35.355Z,99707.84
2023-01-30T16:34:03.334Z,99701.91
2023-01-30T16:36:30.285Z,99716.53
2023-01-30T16:38:56.694Z,99717.31
2023-01-30T16:41:23.035Z,99726.31
2023-01-30T16:43:49.340Z,99716.12
2023-01-30T16:46:15.818Z,99720.59
2023-01-30T16:48:42.177Z,99714.19
2023-01-30T16:51:10.730Z,99715.09
2023-01-30T16:53:37.045Z,99709.44
2023-01-30T16:56:04.145Z,99712.28
2023-01-30T16:58:32.655Z,99720.78
2023-01-30T17:00:59.079Z,99718.09
2023-01-30T17:03:25.507Z,99717.16
2023-01-30T17:05:51.841Z,99715.38
2023-01-30T17:08:18.153Z,99724.63
2023-01-30T17:10:45.008Z,99741.75
2023-01-30T17:13:11.321Z,99745.19
2023-01-30T17:15:37.642Z,99747.78
2023-01-30T17:18:04.176Z,99760.81
2023-01-30T17:20:30.497Z,99759.44
2023-01-30T17:22:57.884Z,99754.75
2023-01-30T17:25:24.401Z,99751.09
2023-01-30T17:27:51.095Z,99772.28
2023-01-30T17:30:17.608Z,99768.91
2023-01-30T17:32:44.121Z,99759.50
2023-01-30T17:35:10.511Z,99756.06
2023-01-30T17:37:36.924Z,99741.00
2023-01-30T17:40:03.411Z,99746.50
2023-01-30T17:42:29.742Z,99755.00
2023-01-30T17:44:56.100Z,99741.16
2023-01-30T17:47:22.633Z,99747.78
2023-01-30T17:49:48.993Z,99767.09
2023-01-30T17:52:15.420Z,99783.88
2023-01-30T17:54:42.034Z,99776.84
2023-01-30T17:57:11.478Z,99783.09
2023-01-30T17:59:37.843Z,99780.03
2023-01-30T18:02:04.278Z,99797.13
2023-01-30T18:04:30.647Z,99791.81
2023-01-30T18:06:58.290Z,99797.22
2023-01-30T18:09:24.667Z,99805.50
2023-01-30T18:11:51.030Z,99810.91
2023-01-30T18:14:17.341Z,99811.13
2023-01-30T18:16:43.739Z,99828.91
2023-01-30T18:19:10.268Z,99840.22
2023-01-30T18:21:36.596Z,99834.72
2023-01-30T18:24:03.008Z,99836.66
2023-01-30T18:26:30.138Z,99858.25
2023-01-30T18:28:56.473Z,99851.38
2023-01-30T18:31:25.327Z,99851.81
2023-01-30T18:33:52.270Z,99875.53
2023-01-30T18:36:18.591Z,99853.00
2023-01-30T18:38:44.936Z,99853.41
2023-01-30T18:41:11.272Z,99870.19
2023-01-30T18:43:37.603Z,99873.81
2023-01-30T18:46:03.954Z,99886.81
2023-01-30T18:48:30.261Z,99896.44
2023-01-30T18:50:56.570Z,99901.44
2023-01-30T18:53:22.886Z,99900.47
2023-01-30T18:55:49.551Z,99902.91
2023-01-30T18:58:16.173Z,99908.91
2023-01-30T19:00:42.476Z,99903.91
2023-01-30T19:03:08.776Z,99911.28
2023-01-30T19:05:35.180Z,99928.34
2023-01-30T19:08:01.474Z,99928.34
2023-01-30T19:10:28.475Z,99914.41
2023-01-30T19:13:13.751Z,99910.44
2023-01-30T19:15:40.156Z,99944.59
2023-01-30T19:18:06.539Z,99959.12
2023-01-30T19:20:32.862Z,99954.09
2023-01-30T19:22:59.900Z,99957.47
2023-01-30T19:25:26.542Z,99966.78
2023-01-30T19:27:55.055Z,99971.13
2023-01-30T19:30:22.191Z,99973.56
2023-01-30T19:32:49.025Z,99975.50
2023-01-30T19:35:15.350Z,99984.72
2023-01-30T19:37:41.696Z,99988.31
2023-01-30T19:40:11.265Z,100007.03
2023-01-30T19:42:40.377Z,100013.06
2023-01-30T19:45:10.213Z,100025.75
2023-01-30T19:47:36.533Z,100019.84
2023-01-30T19:50:02.925Z,100027.91
2023-01-30T19:52:29.292Z,100045.09
2023-01-30T19:54:55.635Z,100022.38
2023-01-30T19:57:22.146Z,100042.22
2023-01-30T19:59:48.457Z,100046.00
2023-01-30T20:02:14.878Z,100046.22
2023-01-30T20:04:41.347Z,100038.97
2023-01-30T20:07:07.651Z,100054.72
2023-01-30T20:09:34.047Z,100050.84
2023-01-30T20:12:00.407Z,100067.91
2023-01-30T20:14:26.719Z,100055.94
2023-01-30T20:16:53.047Z,100060.25
2023-01-30T20:19:19.389Z,100075.50
2023-01-30T20:21:49.220Z,100059.09
2023-01-30T20:24:15.626Z,100065.94
2023-01-30T20:26:42.161Z,100092.56
2023-01-30T20:29:08.551Z,100082.66
2023-01-30T20:31:35.092Z,100086.44
2023-01-30T20:34:01.467Z,100079.88
2023-01-30T20:36:27.881Z,100073.03
2023-01-30T20:38:55.059Z,100077.44
2023-01-30T20:41:21.430Z,100081.03
2023-01-30T20:43:49.398Z,100078.06
2023-01-30T20:46:15.757Z,100088.00
2023-01-30T20:48:42.125Z,100096.38
2023-01-30T20:51:08.631Z,100086.16
2023-01-30T20:53:34.968Z,100107.34
2023-01-30T20:56:01.756Z,100104.59
2023-01-30T20:58:28.148Z,100106.13
2023-01-30T21:00:54.514Z,100119.22
2023-01-30T21:03:20.821Z,100123.41
2023-01-30T21:05:47.293Z,100116.56
2023-01-30T21:08:13.611Z,100119.22
2023-01-30T21:10:46.594Z,100137.44
2023-01-30T21:13:14.393Z,100130.88
2023-01-30T21:15:40.734Z,100132.59
2023-01-30T21:18:07.053Z,100137.41
2023-01-30T21:20:33.425Z,100143.53
2023-01-30T21:22:59.808Z,100135.06
2023-01-30T21:25:26.111Z,100143.47
2023-01-30T21:27:52.422Z,100140.91
2023-01-30T21:30:18.724Z,100154.63
2023-01-30T21:32:45.051Z,100159.66
2023-01-30T21:35:11.349Z,100157.09
2023-01-30T21:37:56.527Z,100162.63
2023-01-30T21:40:41.554Z,100164.47
2023-01-30T21:43:13.797Z,100148.00
2023-01-30T21:45:40.182Z,100167.03
2023-01-30T21:48:06.532Z,100181.97
2023-01-30T21:50:32.893Z,100175.50
2023-01-30T21:52:59.202Z,100187.94
2023-01-30T21:55:25.851Z,100184.13
2023-01-30T21:57:53.389Z,100182.47
2023-01-30T22:00:19.769Z,100194.34
2023-01-30T22:02:46.079Z,100200.47
2023-01-30T22:05:12.445Z,100208.69
2023-01-30T22:07:38.768Z,100213.06
2023-01-30T22:10:05.091Z,100206.97
2023-01-30T22:12:34.436Z,100214.94
2023-01-30T22:15:00.762Z,100210.22
2023-01-30T22:17:27.117Z,100203.88
2023-01-30T22:19:54.002Z,100211.34
2023-01-30T22:22:20.731Z,100216.28
2023-01-30T22:24:47.033Z,100222.63
2023-01-30T22:27:13.422Z,100218.16
2023-01-30T22:29:39.733Z,100221.19
2023-01-30T22:32:06.050Z,100222.31
2023-01-30T22:34:34.284Z,100234.91
2023-01-30T22:37:02.150Z,100244.34
2023-01-30T22:39:28.453Z,100233.50
2023-01-30T22:41:55.054Z,100262.53
2023-01-30T22:44:21.379Z,100255.84
2023-01-30T22:46:47.725Z,100261.37
2023-01-30T22:49:14.109Z,100262.47
2023-01-30T22:51:40.841Z,100264.22
2023-01-30T22:54:07.318Z,100256.12
2023-01-30T22:56:33.628Z,100275.19
2023-01-30T22:58:59.977Z,100258.97
2023-01-30T23:01:26.289Z,100286.88
2023-01-30T23:03:52.663Z,100276.16
2023-01-30T23:06:19.031Z,100284.72
2023-01-30T23:08:45.401Z,100275.91
2023-01-30T23:11:11.755Z,100282.66
2023-01-30T23:13:38.173Z,100281.59
2023-01-30T23:16:04.473Z,100274.37
2023-01-30T23:19:00.375Z,100285.03
2023-01-30T23:21:26.680Z,100286.59
2023-01-30T23:23:53.285Z,100278.28
2023-01-30T23:26:19.620Z,100291.81
2023-01-30T23:28:45.961Z,100277.94
2023-01-30T23:31:12.294Z,100286.41
2023-01-30T23:33:38.912Z,100286.81
2023-01-30T23:36:05.287Z,100296.50
2023-01-30T23:38:31.644Z,100299.06
2023-01-30T23:40:57.967Z,100300.03
2023-01-30T23:43:24.302Z,100311.91
2023-01-30T23:45:54.031Z,100309.94
2023-01-30T23:48:20.490Z,100311.47
2023-01-30T23:50:46.804Z,100304.63
2023-01-30T23:53:13.116Z,100296.91
2023-01-30T23:55:39.876Z,100293.03
2023-01-30T23:58:06.285Z,100293.09
